sensor_id;sensor_type;location;lat;lon;timestamp;pressure;altitude;pressure_sealevel;temperature;humidity
63395;BME280;49531;-34.520;150.798;2022-12-10T00:01:10;100896.00;;;20.73;46.72
63395;BME280;49531;-34.520;150.798;2022-12-10T00:03:37;100898.47;;;20.80;46.98
63395;BME280;49531;-34.520;150.798;2022-12-10T00:06:07;100891.97;;;20.81;46.60
63395;BME280;49531;-34.520;150.798;2022-12-10T00:08:34;100893.63;;;20.82;46.60
63395;BME280;49531;-34.520;150.798;2022-12-10T00:11:05;100895.81;;;20.85;46.68
63395;BME280;49531;-34.520;150.798;2022-12-10T00:13:33;100896.38;;;20.87;46.50
63395;BME280;49531;-34.520;150.798;2022-12-10T00:16:03;100890.66;;;20.83;46.22
63395;BME280;49531;-34.520;150.798;2022-12-10T00:18:32;100890.66;;;20.83;45.85
63395;BME280;49531;-34.520;150.798;2022-12-10T00:21:03;100893.91;;;20.85;45.91
63395;BME280;49531;-34.520;150.798;2022-12-10T00:23:31;100890.72;;;20.93;46.25
63395;BME280;49531;-34.520;150.798;2022-12-10T00:26:05;100894.84;;;20.96;46.30
63395;BME280;49531;-34.520;150.798;2022-12-10T00:28:33;100891.03;;;20.97;46.24
63395;BME280;49531;-34.520;150.798;2022-12-10T00:31:07;100894.63;;;21.03;46.66
63395;BME280;49531;-34.520;150.798;2022-12-10T00:33:35;100904.44;;;21.09;46.82
63395;BME280;49531;-34.520;150.798;2022-12-10T00:36:05;100903.63;;;21.08;46.31
63395;BME280;49531;-34.520;150.798;2022-12-10T00:38:33;100891.94;;;21.08;46.30
63395;BME280;49531;-34.520;150.798;2022-12-10T00:41:00;100893.88;;;21.12;46.43
63395;BME280;49531;-34.520;150.798;2022-12-10T00:43:27;100892.81;;;21.13;46.43
63395;BME280;49531;-34.520;150.798;2022-12-10T00:45:54;100896.09;;;21.20;46.78
63395;BME280;49531;-34.520;150.798;2022-12-10T00:48:22;100888.53;;;21.22;46.60
63395;BME280;49531;-34.520;150.798;2022-12-10T00:51:01;100893.44;;;21.25;46.45
63395;BME280;49531;-34.520;150.798;2022-12-10T00:53:30;100890.78;;;21.30;46.21
63395;BME280;49531;-34.520;150.798;2022-12-10T00:55:58;100885.06;;;21.32;46.52
63395;BME280;49531;-34.520;150.798;2022-12-10T00:58:28;100876.66;;;21.34;45.22
63395;BME280;49531;-34.520;150.798;2022-12-10T01:01:11;100868.81;;;21.37;45.76
63395;BME280;49531;-34.520;150.798;2022-12-10T01:03:39;100883.47;;;21.36;44.97
63395;BME280;49531;-34.520;150.798;2022-12-10T01:06:10;100857.94;;;21.37;45.30
63395;BME280;49531;-34.520;150.798;2022-12-10T01:08:39;100865.56;;;21.40;45.41
63395;BME280;49531;-34.520;150.798;2022-12-10T01:11:06;100868.63;;;21.49;45.58
63395;BME280;49531;-34.520;150.798;2022-12-10T01:13:33;100864.81;;;21.50;45.68
63395;BME280;49531;-34.520;150.798;2022-12-10T01:16:02;100867.53;;;21.50;45.58
63395;BME280;49531;-34.520;150.798;2022-12-10T01:18:30;100856.63;;;21.45;45.18
63395;BME280;49531;-34.520;150.798;2022-12-10T01:21:04;100847.69;;;21.49;45.43
63395;BME280;49531;-34.520;150.798;2022-12-10T01:23:34;100846.88;;;21.49;45.76
63395;BME280;49531;-34.520;150.798;2022-12-10T01:26:04;100846.31;;;21.47;45.92
63395;BME280;49531;-34.520;150.798;2022-12-10T01:28:34;100839.28;;;21.51;45.82
63395;BME280;49531;-34.520;150.798;2022-12-10T01:31:03;100844.19;;;21.54;45.96
63395;BME280;49531;-34.520;150.798;2022-12-10T01:33:32;100837.66;;;21.55;46.09
63395;BME280;49531;-34.520;150.798;2022-12-10T01:36:05;100837.38;;;21.51;45.67
63395;BME280;49531;-34.520;150.798;2022-12-10T01:38:33;100848.47;;;21.45;45.69
63395;BME280;49531;-34.520;150.798;2022-12-10T01:41:01;100825.91;;;21.44;45.71
63395;BME280;49531;-34.520;150.798;2022-12-10T01:43:48;100833.31;;;21.54;45.68
63395;BME280;49531;-34.520;150.798;2022-12-10T01:46:15;100840.94;;;21.62;45.81
63395;BME280;49531;-34.520;150.798;2022-12-10T01:48:42;100836.88;;;21.64;46.00
63395;BME280;49531;-34.520;150.798;2022-12-10T01:51:11;100840.44;;;21.70;45.97
63395;BME280;49531;-34.520;150.798;2022-12-10T01:53:39;100830.41;;;21.76;45.96
63395;BME280;49531;-34.520;150.798;2022-12-10T01:56:08;100829.31;;;21.77;45.93
63395;BME280;49531;-34.520;150.798;2022-12-10T01:58:36;100832.31;;;21.80;45.98
63395;BME280;49531;-34.520;150.798;2022-12-10T02:01:13;100830.97;;;21.83;45.94
63395;BME280;49531;-34.520;150.798;2022-12-10T02:03:56;100822.28;;;21.86;45.98
63395;BME280;49531;-34.520;150.798;2022-12-10T02:09:22;100826.66;;;21.92;46.02
63395;BME280;49531;-34.520;150.798;2022-12-10T02:12:02;100813.34;;;21.95;46.10
63395;BME280;49531;-34.520;150.798;2022-12-10T02:14:43;100811.19;;;21.98;46.07
63395;BME280;49531;-34.520;150.798;2022-12-10T02:17:26;100812.28;;;22.02;46.10
63395;BME280;49531;-34.520;150.798;2022-12-10T02:20:07;100805.50;;;22.04;46.14
63395;BME280;49531;-34.520;150.798;2022-12-10T02:22:42;100801.41;;;22.07;46.05
63395;BME280;49531;-34.520;150.798;2022-12-10T02:25:14;100805.50;;;22.09;46.03
63395;BME280;49531;-34.520;150.798;2022-12-10T02:27:59;100805.25;;;22.11;46.08
63395;BME280;49531;-34.520;150.798;2022-12-10T02:30:31;100814.78;;;22.13;46.02
63395;BME280;49531;-34.520;150.798;2022-12-10T02:33:02;100806.59;;;22.13;45.47
63395;BME280;49531;-34.520;150.798;2022-12-10T02:35:34;100809.31;;;22.08;45.56
63395;BME280;49531;-34.520;150.798;2022-12-10T02:38:11;100800.34;;;22.08;45.74
63395;BME280;49531;-34.520;150.798;2022-12-10T02:40:44;100806.06;;;22.11;45.83
63395;BME280;49531;-34.520;150.798;2022-12-10T02:43:13;100793.81;;;22.14;46.10
63395;BME280;49531;-34.520;150.798;2022-12-10T02:45:42;100796.50;;;22.04;45.92
63395;BME280;49531;-34.520;150.798;2022-12-10T02:48:10;100792.44;;;22.01;45.79
63395;BME280;49531;-34.520;150.798;2022-12-10T02:50:38;100798.66;;;21.91;46.00
63395;BME280;49531;-34.520;150.798;2022-12-10T02:53:08;100793.72;;;21.83;45.83
63395;BME280;49531;-34.520;150.798;2022-12-10T02:55:54;100798.38;;;21.88;46.07
63395;BME280;49531;-34.520;150.798;2022-12-10T03:01:37;100791.50;;;21.70;45.76
63395;BME280;49531;-34.520;150.798;2022-12-10T03:04:26;100780.09;;;21.73;46.20
63395;BME280;49531;-34.520;150.798;2022-12-10T03:07:02;100774.16;;;21.81;45.99
63395;BME280;49531;-34.520;150.798;2022-12-10T03:09:37;100774.72;;;21.93;46.40
63395;BME280;49531;-34.520;150.798;2022-12-10T03:12:18;100776.34;;;22.00;46.42
63395;BME280;49531;-34.520;150.798;2022-12-10T03:14:47;100762.22;;;21.92;46.36
63395;BME280;49531;-34.520;150.798;2022-12-10T03:17:15;100763.84;;;21.88;46.16
63395;BME280;49531;-34.520;150.798;2022-12-10T03:19:46;100763.31;;;21.91;46.30
63395;BME280;49531;-34.520;150.798;2022-12-10T03:22:17;100763.81;;;21.83;46.38
63395;BME280;49531;-34.520;150.798;2022-12-10T03:24:45;100756.22;;;21.85;46.40
63395;BME280;49531;-34.520;150.798;2022-12-10T03:27:14;100745.88;;;21.87;46.87
63395;BME280;49531;-34.520;150.798;2022-12-10T03:29:47;100736.63;;;21.83;47.13
63395;BME280;49531;-34.520;150.798;2022-12-10T03:32:16;100742.63;;;21.90;47.19
63395;BME280;49531;-34.520;150.798;2022-12-10T03:34:45;100740.19;;;21.94;47.14
63395;BME280;49531;-34.520;150.798;2022-12-10T03:37:12;100736.66;;;21.93;46.88
63395;BME280;49531;-34.520;150.798;2022-12-10T03:39:41;100736.09;;;21.91;46.91
63395;BME280;49531;-34.520;150.798;2022-12-10T03:42:09;100740.72;;;21.86;47.18
63395;BME280;49531;-34.520;150.798;2022-12-10T03:44:37;100740.97;;;21.79;47.46
63395;BME280;49531;-34.520;150.798;2022-12-10T03:47:09;100728.75;;;21.82;47.12
63395;BME280;49531;-34.520;150.798;2022-12-10T03:49:37;100735.56;;;21.94;47.05
63395;BME280;49531;-34.520;150.798;2022-12-10T03:52:04;100732.84;;;21.94;46.94
63395;BME280;49531;-34.520;150.798;2022-12-10T03:54:32;100737.19;;;21.95;47.11
63395;BME280;49531;-34.520;150.798;2022-12-10T03:56:59;100736.66;;;21.93;47.08
63395;BME280;49531;-34.520;150.798;2022-12-10T03:59:26;100731.19;;;21.88;46.83
63395;BME280;49531;-34.520;150.798;2022-12-10T04:01:53;100728.22;;;21.95;47.11
63395;BME280;49531;-34.520;150.798;2022-12-10T04:04:21;100725.25;;;21.96;47.22
63395;BME280;49531;-34.520;150.798;2022-12-10T04:06:48;100721.97;;;21.94;47.07
63395;BME280;49531;-34.520;150.798;2022-12-10T04:09:16;100710.28;;;21.94;47.19
63395;BME280;49531;-34.520;150.798;2022-12-10T04:11:44;100711.63;;;21.96;47.13
63395;BME280;49531;-34.520;150.798;2022-12-10T04:14:12;100707.28;;;21.95;47.03
63395;BME280;49531;-34.520;150.798;2022-12-10T04:16:51;100703.72;;;22.00;46.90
63395;BME280;49531;-34.520;150.798;2022-12-10T04:19:19;100702.13;;;22.04;46.71
63395;BME280;49531;-34.520;150.798;2022-12-10T04:21:47;100694.78;;;22.10;46.72
63395;BME280;49531;-34.520;150.798;2022-12-10T04:24:28;100694.81;;;22.15;46.73
63395;BME280;49531;-34.520;150.798;2022-12-10T04:27:12;100687.19;;;22.17;46.64
63395;BME280;49531;-34.520;150.798;2022-12-10T04:29:39;100695.91;;;22.19;46.70
63395;BME280;49531;-34.520;150.798;2022-12-10T04:32:07;100696.72;;;22.19;46.61
63395;BME280;49531;-34.520;150.798;2022-12-10T04:34:35;100691.53;;;22.23;46.69
63395;BME280;49531;-34.520;150.798;2022-12-10T04:37:03;100682.28;;;22.24;46.64
63395;BME280;49531;-34.520;150.798;2022-12-10T04:39:31;100676.31;;;22.27;46.44
63395;BME280;49531;-34.520;150.798;2022-12-10T04:42:00;100677.94;;;22.28;46.46
63395;BME280;49531;-34.520;150.798;2022-12-10T04:44:27;100692.09;;;22.30;46.50
63395;BME280;49531;-34.520;150.798;2022-12-10T04:46:54;100692.91;;;22.31;46.43
63395;BME280;49531;-34.520;150.798;2022-12-10T04:49:22;100686.09;;;22.33;46.35
63395;BME280;49531;-34.520;150.798;2022-12-10T04:51:49;100681.47;;;22.34;46.42
63395;BME280;49531;-34.520;150.798;2022-12-10T04:54:19;100683.94;;;22.35;46.42
63395;BME280;49531;-34.520;150.798;2022-12-10T04:56:46;100680.94;;;22.37;46.29
63395;BME280;49531;-34.520;150.798;2022-12-10T04:59:14;100686.09;;;22.38;46.29
63395;BME280;49531;-34.520;150.798;2022-12-10T05:01:42;100682.28;;;22.39;46.32
63395;BME280;49531;-34.520;150.798;2022-12-10T05:04:12;100682.00;;;22.41;46.25
63395;BME280;49531;-34.520;150.798;2022-12-10T05:06:40;100678.72;;;22.44;46.20
63395;BME280;49531;-34.520;150.798;2022-12-10T05:09:07;100686.06;;;22.43;46.23
63395;BME280;49531;-34.520;150.798;2022-12-10T05:11:35;100683.34;;;22.43;46.17
63395;BME280;49531;-34.520;150.798;2022-12-10T05:14:02;100676.28;;;22.47;46.30
63395;BME280;49531;-34.520;150.798;2022-12-10T05:16:31;100684.72;;;22.51;46.44
63395;BME280;49531;-34.520;150.798;2022-12-10T05:18:59;100693.69;;;22.56;46.57
63395;BME280;49531;-34.520;150.798;2022-12-10T05:21:27;100685.78;;;22.60;46.44
63395;BME280;49531;-34.520;150.798;2022-12-10T05:24:16;100672.97;;;22.66;46.53
63395;BME280;49531;-34.520;150.798;2022-12-10T05:26:43;100678.69;;;22.69;46.40
63395;BME280;49531;-34.520;150.798;2022-12-10T05:29:12;100670.78;;;22.73;46.31
63395;BME280;49531;-34.520;150.798;2022-12-10T05:31:39;100661.25;;;22.75;46.25
63395;BME280;49531;-34.520;150.798;2022-12-10T05:34:06;100656.88;;;22.79;46.27
63395;BME280;49531;-34.520;150.798;2022-12-10T05:36:35;100661.78;;;22.82;46.17
63395;BME280;49531;-34.520;150.798;2022-12-10T05:39:03;100664.50;;;22.87;46.12
63395;BME280;49531;-34.520;150.798;2022-12-10T05:41:33;100650.59;;;22.89;46.04
63395;BME280;49531;-34.520;150.798;2022-12-10T05:44:01;100659.59;;;22.89;46.04
63395;BME280;49531;-34.520;150.798;2022-12-10T05:46:30;100656.03;;;22.94;46.00
63395;BME280;49531;-34.520;150.798;2022-12-10T05:48:59;100651.41;;;22.94;46.01
63395;BME280;49531;-34.520;150.798;2022-12-10T05:51:29;100651.94;;;22.97;45.86
63395;BME280;49531;-34.520;150.798;2022-12-10T05:53:57;100654.09;;;23.00;45.84
63395;BME280;49531;-34.520;150.798;2022-12-10T05:56:25;100660.91;;;23.02;45.82
63395;BME280;49531;-34.520;150.798;2022-12-10T05:58:57;100647.00;;;23.04;45.75
63395;BME280;49531;-34.520;150.798;2022-12-10T06:01:27;100647.81;;;23.04;45.66
63395;BME280;49531;-34.520;150.798;2022-12-10T06:03:57;100650.00;;;23.07;45.73
63395;BME280;49531;-34.520;150.798;2022-12-10T06:06:28;100644.25;;;23.09;45.71
63395;BME280;49531;-34.520;150.798;2022-12-10T06:08:56;100636.63;;;23.11;45.68
63395;BME280;49531;-34.520;150.798;2022-12-10T06:11:24;100639.06;;;23.12;45.54
63395;BME280;49531;-34.520;150.798;2022-12-10T06:13:53;100641.81;;;23.12;45.49
63395;BME280;49531;-34.520;150.798;2022-12-10T06:16:21;100646.97;;;23.14;45.38
63395;BME280;49531;-34.520;150.798;2022-12-10T06:18:48;100636.88;;;23.14;45.58
63395;BME280;49531;-34.520;150.798;2022-12-10T06:21:16;100626.53;;;23.16;45.42
63395;BME280;49531;-34.520;150.798;2022-12-10T06:23:45;100628.44;;;23.16;45.49
63395;BME280;49531;-34.520;150.798;2022-12-10T06:26:15;100619.97;;;23.17;45.70
63395;BME280;49531;-34.520;150.798;2022-12-10T06:28:45;100621.59;;;23.18;45.64
63395;BME280;49531;-34.520;150.798;2022-12-10T06:31:13;100621.31;;;23.20;45.47
63395;BME280;49531;-34.520;150.798;2022-12-10T06:33:41;100621.31;;;23.20;45.37
63395;BME280;49531;-34.520;150.798;2022-12-10T06:36:11;100624.84;;;23.20;45.07
63395;BME280;49531;-34.520;150.798;2022-12-10T06:38:39;100624.84;;;23.20;45.17
63395;BME280;49531;-34.520;150.798;2022-12-10T06:41:08;100622.13;;;23.20;45.10
63395;BME280;49531;-34.520;150.798;2022-12-10T06:43:36;100620.22;;;23.21;45.23
63395;BME280;49531;-34.520;150.798;2022-12-10T06:46:07;100610.94;;;23.22;45.03
63395;BME280;49531;-34.520;150.798;2022-12-10T06:48:35;100621.03;;;23.21;44.90
63395;BME280;49531;-34.520;150.798;2022-12-10T06:51:03;100618.84;;;23.23;45.11
63395;BME280;49531;-34.520;150.798;2022-12-10T06:53:32;100621.84;;;23.22;44.95
63395;BME280;49531;-34.520;150.798;2022-12-10T06:56:00;100626.47;;;23.21;45.15
63395;BME280;49531;-34.520;150.798;2022-12-10T06:58:31;100621.03;;;23.21;44.92
63395;BME280;49531;-34.520;150.798;2022-12-10T07:01:05;100618.28;;;23.21;45.03
63395;BME280;49531;-34.520;150.798;2022-12-10T07:03:33;100624.84;;;23.20;45.04
63395;BME280;49531;-34.520;150.798;2022-12-10T07:06:01;100631.38;;;23.19;45.03
63395;BME280;49531;-34.520;150.798;2022-12-10T07:08:28;100638.47;;;23.20;44.99
63395;BME280;49531;-34.520;150.798;2022-12-10T07:10:56;100633.81;;;23.21;44.97
63395;BME280;49531;-34.520;150.798;2022-12-10T07:13:23;100640.09;;;23.21;45.11
63395;BME280;49531;-34.520;150.798;2022-12-10T07:15:50;100636.56;;;23.21;45.05
63395;BME280;49531;-34.520;150.798;2022-12-10T07:18:17;100639.28;;;23.21;45.21
63395;BME280;49531;-34.520;150.798;2022-12-10T07:20:44;100634.94;;;23.20;45.21
63395;BME280;49531;-34.520;150.798;2022-12-10T07:23:11;100642.00;;;23.21;45.21
63395;BME280;49531;-34.520;150.798;2022-12-10T07:25:39;100649.38;;;23.20;45.24
63395;BME280;49531;-34.520;150.798;2022-12-10T07:28:06;100645.00;;;23.19;45.26
63395;BME280;49531;-34.520;150.798;2022-12-10T07:30:33;100656.72;;;23.20;45.13
63395;BME280;49531;-34.520;150.798;2022-12-10T07:33:00;100646.63;;;23.20;45.31
63395;BME280;49531;-34.520;150.798;2022-12-10T07:35:27;100644.78;;;23.16;45.34
63395;BME280;49531;-34.520;150.798;2022-12-10T07:37:54;100651.28;;;23.20;45.32
63395;BME280;49531;-34.520;150.798;2022-12-10T07:40:22;100644.50;;;23.17;45.33
63395;BME280;49531;-34.520;150.798;2022-12-10T07:42:49;100646.41;;;23.17;45.19
63395;BME280;49531;-34.520;150.798;2022-12-10T07:45:17;100642.06;;;23.16;45.17
63395;BME280;49531;-34.520;150.798;2022-12-10T07:47:44;100643.97;;;23.15;45.16
63395;BME280;49531;-34.520;150.798;2022-12-10T07:50:11;100645.06;;;23.14;45.22
63395;BME280;49531;-34.520;150.798;2022-12-10T07:52:38;100646.97;;;23.14;45.21
63395;BME280;49531;-34.520;150.798;2022-12-10T07:55:05;100642.63;;;23.13;45.25
63395;BME280;49531;-34.520;150.798;2022-12-10T07:57:33;100641.53;;;23.14;45.29
63395;BME280;49531;-34.520;150.798;2022-12-10T08:00:00;100646.16;;;23.13;45.27
63395;BME280;49531;-34.520;150.798;2022-12-10T08:02:28;100652.41;;;23.14;45.33
63395;BME280;49531;-34.520;150.798;2022-12-10T08:04:55;100648.34;;;23.11;45.22
63395;BME280;49531;-34.520;150.798;2022-12-10T08:07:22;100646.72;;;23.10;45.31
63395;BME280;49531;-34.520;150.798;2022-12-10T08:09:49;100652.16;;;23.10;45.29
63395;BME280;49531;-34.520;150.798;2022-12-10T08:12:16;100653.00;;;23.06;45.27
63395;BME280;49531;-34.520;150.798;2022-12-10T08:14:43;100656.53;;;23.06;45.29
63395;BME280;49531;-34.520;150.798;2022-12-10T08:17:10;100657.06;;;23.08;45.16
63395;BME280;49531;-34.520;150.798;2022-12-10T08:19:37;100657.34;;;23.07;45.19
63395;BME280;49531;-34.520;150.798;2022-12-10T08:22:04;100660.88;;;23.07;45.29
63395;BME280;49531;-34.520;150.798;2022-12-10T08:24:32;100660.34;;;23.05;45.27
63395;BME280;49531;-34.520;150.798;2022-12-10T08:26:59;100657.34;;;23.07;45.28
63395;BME280;49531;-34.520;150.798;2022-12-10T08:29:26;100657.91;;;23.04;45.40
63395;BME280;49531;-34.520;150.798;2022-12-10T08:31:53;100651.66;;;23.03;45.34
63395;BME280;49531;-34.520;150.798;2022-12-10T08:34:20;100651.09;;;23.01;45.50
63395;BME280;49531;-34.520;150.798;2022-12-10T08:36:47;100652.19;;;23.00;45.53
63395;BME280;49531;-34.520;150.798;2022-12-10T08:39:14;100647.84;;;22.99;45.45
63395;BME280;49531;-34.520;150.798;2022-12-10T08:41:44;100655.19;;;22.99;45.42
63395;BME280;49531;-34.520;150.798;2022-12-10T08:44:12;100652.47;;;22.99;45.53
63395;BME280;49531;-34.520;150.798;2022-12-10T08:46:40;100657.09;;;22.98;45.49
63395;BME280;49531;-34.520;150.798;2022-12-10T08:49:07;100653.84;;;22.96;45.54
63395;BME280;49531;-34.520;150.798;2022-12-10T08:51:34;100648.69;;;22.94;45.59
63395;BME280;49531;-34.520;150.798;2022-12-10T08:54:01;100651.41;;;22.94;45.59
63395;BME280;49531;-34.520;150.798;2022-12-10T08:56:29;100655.50;;;22.92;45.66
63395;BME280;49531;-34.520;150.798;2022-12-10T08:58:56;100662.56;;;22.93;45.68
63395;BME280;49531;-34.520;150.798;2022-12-10T09:01:23;100656.59;;;22.91;45.70
63395;BME280;49531;-34.520;150.798;2022-12-10T09:03:51;100654.13;;;22.89;45.70
63395;BME280;49531;-34.520;150.798;2022-12-10T09:06:20;100658.78;;;22.89;45.74
63395;BME280;49531;-34.520;150.798;2022-12-10T09:08:50;100665.03;;;22.89;45.64
63395;BME280;49531;-34.520;150.798;2022-12-10T09:11:21;100658.22;;;22.87;45.91
63395;BME280;49531;-34.520;150.798;2022-12-10T09:13:49;100653.06;;;22.85;45.75
63395;BME280;49531;-34.520;150.798;2022-12-10T09:16:16;100662.59;;;22.83;45.84
63395;BME280;49531;-34.520;150.798;2022-12-10T09:18:44;100656.34;;;22.82;45.89
63395;BME280;49531;-34.520;150.798;2022-12-10T09:21:15;100659.34;;;22.81;45.92
63395;BME280;49531;-34.520;150.798;2022-12-10T09:23:43;100659.34;;;22.76;45.94
63395;BME280;49531;-34.520;150.798;2022-12-10T09:26:13;100663.16;;;22.75;45.77
63395;BME280;49531;-34.520;150.798;2022-12-10T09:28:41;100662.34;;;22.74;45.80
63395;BME280;49531;-34.520;150.798;2022-12-10T09:31:09;100664.25;;;22.74;45.90
63395;BME280;49531;-34.520;150.798;2022-12-10T09:33:38;100668.88;;;22.73;45.82
63395;BME280;49531;-34.520;150.798;2022-12-10T09:36:07;100663.16;;;22.70;45.87
63395;BME280;49531;-34.520;150.798;2022-12-10T09:38:36;100667.00;;;22.69;45.92
63395;BME280;49531;-34.520;150.798;2022-12-10T09:41:21;100670.81;;;22.68;45.82
63395;BME280;49531;-34.520;150.798;2022-12-10T09:44:09;100662.09;;;22.66;45.79
63395;BME280;49531;-34.520;150.798;2022-12-10T09:46:51;100655.81;;;22.65;45.90
63395;BME280;49531;-34.520;150.798;2022-12-10T09:49:31;100662.63;;;22.62;45.87
63395;BME280;49531;-34.520;150.798;2022-12-10T09:52:02;100668.34;;;22.61;46.00
63395;BME280;49531;-34.520;150.798;2022-12-10T09:54:34;100664.00;;;22.60;45.88
63395;BME280;49531;-34.520;150.798;2022-12-10T09:57:05;100662.66;;;22.57;45.98
63395;BME280;49531;-34.520;150.798;2022-12-10T09:59:38;100678.16;;;22.57;45.94
63395;BME280;49531;-34.520;150.798;2022-12-10T10:02:25;100676.00;;;22.54;46.01
63395;BME280;49531;-34.520;150.798;2022-12-10T10:05:19;100669.19;;;22.51;46.00
63395;BME280;49531;-34.520;150.798;2022-12-10T10:07:52;100670.28;;;22.50;46.10
63395;BME280;49531;-34.520;150.798;2022-12-10T10:10:27;100674.63;;;22.51;45.99
63395;BME280;49531;-34.520;150.798;2022-12-10T10:13:01;100674.91;;;22.50;45.95
63395;BME280;49531;-34.520;150.798;2022-12-10T10:15:41;100681.72;;;22.47;46.00
63395;BME280;49531;-34.520;150.798;2022-12-10T10:18:17;100680.63;;;22.43;46.14
63395;BME280;49531;-34.520;150.798;2022-12-10T10:20:45;100687.16;;;22.42;46.08
63395;BME280;49531;-34.520;150.798;2022-12-10T10:23:15;100686.06;;;22.43;46.12
63395;BME280;49531;-34.520;150.798;2022-12-10T10:25:43;100690.47;;;22.39;46.14
63395;BME280;49531;-34.520;150.798;2022-12-10T10:28:15;100689.06;;;22.42;46.08
63395;BME280;49531;-34.520;150.798;2022-12-10T10:30:45;100690.47;;;22.39;46.11
63395;BME280;49531;-34.520;150.798;2022-12-10T10:33:14;100694.28;;;22.38;46.11
63395;BME280;49531;-34.520;150.798;2022-12-10T10:35:46;100693.44;;;22.38;46.12
63395;BME280;49531;-34.520;150.798;2022-12-10T10:38:22;100697.25;;;22.37;46.17
63395;BME280;49531;-34.520;150.798;2022-12-10T10:40:53;100687.75;;;22.34;46.29
63395;BME280;49531;-34.520;150.798;2022-12-10T10:43:26;100694.28;;;22.33;46.18
63395;BME280;49531;-34.520;150.798;2022-12-10T10:45:54;100698.34;;;22.31;46.33
63395;BME280;49531;-34.520;150.798;2022-12-10T10:48:25;100690.19;;;22.31;46.33
63395;BME280;49531;-34.520;150.798;2022-12-10T10:51:06;100692.09;;;22.30;46.18
63395;BME280;49531;-34.520;150.798;2022-12-10T10:53:44;100689.38;;;22.30;46.28
63395;BME280;49531;-34.520;150.798;2022-12-10T10:56:18;100694.28;;;22.28;46.44
63395;BME280;49531;-34.520;150.798;2022-12-10T10:58:55;100694.53;;;22.26;46.40
63395;BME280;49531;-34.520;150.798;2022-12-10T11:01:25;100693.72;;;22.26;46.36
63395;BME280;49531;-34.520;150.798;2022-12-10T11:03:57;100696.44;;;22.26;46.35
63395;BME280;49531;-34.520;150.798;2022-12-10T11:06:25;100689.09;;;22.21;46.42
63395;BME280;49531;-34.520;150.798;2022-12-10T11:08:57;100695.34;;;22.22;46.48
63395;BME280;49531;-34.520;150.798;2022-12-10T11:11:34;100689.09;;;22.21;46.51
63395;BME280;49531;-34.520;150.798;2022-12-10T11:14:19;100690.19;;;22.20;46.42
63395;BME280;49531;-34.520;150.798;2022-12-10T11:16:50;100684.75;;;22.20;46.46
63395;BME280;49531;-34.520;150.798;2022-12-10T11:19:22;100691.28;;;22.19;46.52
63395;BME280;49531;-34.520;150.798;2022-12-10T11:21:52;100685.28;;;22.17;46.71
63395;BME280;49531;-34.520;150.798;2022-12-10T11:24:20;100683.91;;;22.15;46.68
63395;BME280;49531;-34.520;150.798;2022-12-10T11:27:02;100685.00;;;22.14;46.72
63395;BME280;49531;-34.520;150.798;2022-12-10T11:29:54;100683.38;;;22.13;46.66
63395;BME280;49531;-34.520;150.798;2022-12-10T11:32:43;100687.19;;;22.12;46.74
63395;BME280;49531;-34.520;150.798;2022-12-10T11:35:29;100686.38;;;22.11;46.91
63395;BME280;49531;-34.520;150.798;2022-12-10T11:38:25;100691.25;;;22.09;46.96
63395;BME280;49531;-34.520;150.798;2022-12-10T11:41:02;100689.63;;;22.08;46.95
63395;BME280;49531;-34.520;150.798;2022-12-10T11:44:01;100695.34;;;22.07;46.93
63395;BME280;49531;-34.520;150.798;2022-12-10T11:46:49;100690.16;;;22.05;46.93
63395;BME280;49531;-34.520;150.798;2022-12-10T11:49:35;100689.63;;;22.03;47.03
63395;BME280;49531;-34.520;150.798;2022-12-10T11:52:22;100690.44;;;22.04;46.97
63395;BME280;49531;-34.520;150.798;2022-12-10T11:55:25;100688.22;;;22.01;46.96
63395;BME280;49531;-34.520;150.798;2022-12-10T11:58:11;100676.53;;;22.00;47.01
63395;BME280;49531;-34.520;150.798;2022-12-10T12:00:58;100676.03;;;21.98;47.23
63395;BME280;49531;-34.520;150.798;2022-12-10T12:03:42;100673.56;;;21.96;47.24
63395;BME280;49531;-34.520;150.798;2022-12-10T12:06:30;100668.41;;;21.95;47.26
63395;BME280;49531;-34.520;150.798;2022-12-10T12:09:11;100667.56;;;21.94;47.31
63395;BME280;49531;-34.520;150.798;2022-12-10T12:12:11;100668.66;;;21.93;47.28
63395;BME280;49531;-34.520;150.798;2022-12-10T12:14:54;100669.75;;;21.92;47.34
63395;BME280;49531;-34.520;150.798;2022-12-10T12:17:30;100661.06;;;21.90;47.52
63395;BME280;49531;-34.520;150.798;2022-12-10T12:20:05;100666.75;;;21.89;47.50
63395;BME280;49531;-34.520;150.798;2022-12-10T12:22:45;100663.50;;;21.87;47.67
63395;BME280;49531;-34.520;150.798;2022-12-10T12:25:22;100662.66;;;21.86;47.62
63395;BME280;49531;-34.520;150.798;2022-12-10T12:27:55;100657.22;;;21.81;47.63
63395;BME280;49531;-34.520;150.798;2022-12-10T12:30:25;100649.88;;;21.82;47.66
63395;BME280;49531;-34.520;150.798;2022-12-10T12:33:00;100652.59;;;21.82;47.73
63395;BME280;49531;-34.520;150.798;2022-12-10T12:35:39;100644.72;;;21.80;47.74
63395;BME280;49531;-34.520;150.798;2022-12-10T12:38:30;100648.53;;;21.79;47.77
63395;BME280;49531;-34.520;150.798;2022-12-10T12:41:04;100649.88;;;21.77;47.84
63395;BME280;49531;-34.520;150.798;2022-12-10T12:44:00;100640.91;;;21.76;47.87
63395;BME280;49531;-34.520;150.798;2022-12-10T12:46:37;100645.78;;;21.74;47.86
63395;BME280;49531;-34.520;150.798;2022-12-10T12:49:18;100639.00;;;21.72;47.78